Time;durP1;ratioP1;P1;durP2;ratioP2;P2;SDS_P1;SDS_P2;PMS_P1;PMS_P2;Temp;Humidity;BMP_temperature;BMP_pressure;BME280_temperature;BME280_humidity;BME280_pressure;Samples;Min_cycle;Max_cycle;Signal;HPM_P1;HPM_P2
2021/03/27 00:00:41;;;;;;;9.38;5.90;;;;;;;12.30;50.66;97842.09;4981667;28;20706;-81
2021/03/27 00:03:15;;;;;;;7.97;5.85;;;;;;;12.29;51.56;97845.63;4982719;28;20214;-81
2021/03/27 00:05:45;;;;;;;7.53;6.07;;;;;;;12.31;50.90;97851.63;4981352;28;20961;-81
2021/03/27 00:08:16;;;;;;;8.75;6.55;;;;;;;12.31;51.03;97849.00;4981499;28;20223;-80
2021/03/27 00:10:49;;;;;;;10.32;6.50;;;;;;;12.30;50.99;97852.56;4981215;28;20226;-80
2021/03/27 00:13:25;;;;;;;9.82;7.15;;;;;;;12.24;51.01;97858.06;4983358;28;20311;-81
2021/03/27 00:16:05;;;;;;;7.63;6.05;;;;;;;12.14;51.34;97858.53;4985877;28;20234;-80
2021/03/27 00:18:45;;;;;;;10.55;6.60;;;;;;;12.06;51.60;97857.25;4983503;28;20221;-81
2021/03/27 00:21:16;;;;;;;7.43;5.63;;;;;;;12.01;51.17;97852.22;4984423;28;20218;-80
2021/03/27 00:23:51;;;;;;;7.20;5.00;;;;;;;12.01;51.05;97852.22;4979581;28;20229;-81
2021/03/27 00:26:23;;;;;;;11.77;5.97;;;;;;;12.03;51.62;97855.59;4984713;28;20242;-82
2021/03/27 00:28:52;;;;;;;8.93;6.07;;;;;;;11.98;51.22;97852.34;4981899;28;20225;-81
2021/03/27 00:31:22;;;;;;;6.28;5.07;;;;;;;11.98;51.43;97854.97;4980722;28;20240;-81
2021/03/27 00:33:53;;;;;;;9.55;6.00;;;;;;;11.95;52.00;97850.75;4982295;28;20240;-81
2021/03/27 00:36:21;;;;;;;7.72;5.20;;;;;;;11.94;51.62;97842.97;4985756;28;20204;-81
2021/03/27 00:38:50;;;;;;;6.30;5.30;;;;;;;11.90;51.89;97841.44;4984238;28;20224;-81
2021/03/27 00:41:20;;;;;;;9.00;6.22;;;;;;;11.80;51.82;97843.63;4983296;28;20209;-81
2021/03/27 00:43:48;;;;;;;8.07;6.20;;;;;;;11.73;51.79;97843.09;4982156;28;20721;-80
2021/03/27 00:46:16;;;;;;;11.02;7.13;;;;;;;11.60;51.66;97852.44;4983914;28;20218;-82
2021/03/27 00:48:47;;;;;;;9.30;6.25;;;;;;;11.52;52.01;97849.31;4981724;28;20209;-81
2021/03/27 00:51:18;;;;;;;7.60;6.10;;;;;;;11.56;52.60;97845.63;4984416;28;20204;-80
2021/03/27 00:53:50;;;;;;;10.60;6.97;;;;;;;11.62;52.14;97844.53;4983280;28;20227;-80
2021/03/27 00:56:19;;;;;;;8.82;5.90;;;;;;;11.67;51.99;97845.13;4982627;28;20219;-80
2021/03/27 00:58:48;;;;;;;6.65;5.22;;;;;;;11.71;52.17;97842.31;4977708;28;20592;-81
2021/03/27 01:01:16;;;;;;;7.70;5.38;;;;;;;11.69;52.23;97830.22;4986514;28;20219;-81
2021/03/27 01:03:45;;;;;;;6.45;5.20;;;;;;;11.48;52.07;97838.16;4978712;28;20290;-80
2021/03/27 01:06:14;;;;;;;7.10;5.80;;;;;;;11.46;52.71;97845.22;4977111;28;20231;-81
2021/03/27 01:08:44;;;;;;;7.80;6.05;;;;;;;11.44;53.30;97841.00;4978545;28;20741;-80
2021/03/27 01:11:15;;;;;;;9.25;6.00;;;;;;;11.44;53.42;97846.25;4982345;28;20208;-80
2021/03/27 01:13:43;;;;;;;9.23;5.68;;;;;;;11.46;53.46;97837.41;4981224;28;20732;-81
2021/03/27 01:16:13;;;;;;;8.40;5.68;;;;;;;11.47;53.26;97841.72;4980960;28;20686;-81
2021/03/27 01:18:56;;;;;;;7.68;5.78;;;;;;;11.48;53.51;97827.72;4982890;28;20215;-79
2021/03/27 01:21:27;;;;;;;7.50;5.05;;;;;;;11.44;52.74;97835.78;4979895;28;20208;-80
2021/03/27 01:23:55;;;;;;;7.10;4.70;;;;;;;11.36;52.99;97834.38;4980917;28;20318;-80
2021/03/27 01:26:24;;;;;;;6.97;5.57;;;;;;;11.28;53.16;97836.47;4984039;28;20212;-80
2021/03/27 01:28:55;;;;;;;7.93;5.50;;;;;;;11.27;53.71;97833.97;4981112;28;20315;-81
2021/03/27 01:31:26;;;;;;;6.28;5.28;;;;;;;11.33;53.72;97823.22;4982162;28;20246;-81
2021/03/27 01:33:57;;;;;;;5.90;4.60;;;;;;;11.32;53.43;97822.41;4978670;28;20232;-80
2021/03/27 01:36:31;;;;;;;8.95;5.38;;;;;;;11.20;53.74;97830.78;4978161;28;20212;-80
2021/03/27 01:39:01;;;;;;;8.73;5.70;;;;;;;11.06;54.25;97834.03;4981546;28;20306;-79
2021/03/27 01:41:33;;;;;;;6.82;5.35;;;;;;;10.97;54.81;97840.53;4981607;28;20208;-80
2021/03/27 01:44:11;;;;;;;9.07;5.43;;;;;;;10.95;54.50;97839.75;4978852;28;20241;-79
2021/03/27 01:46:51;;;;;;;7.82;4.88;;;;;;;10.99;54.69;97828.25;4983394;28;20216;-81
2021/03/27 01:49:26;;;;;;;8.80;5.95;;;;;;;11.02;54.52;97831.63;4982704;28;20219;-81
2021/03/27 01:52:01;;;;;;;7.70;4.72;;;;;;;10.97;54.81;97832.69;4975490;28;20239;-81
2021/03/27 01:54:31;;;;;;;7.97;5.60;;;;;;;10.97;54.66;97837.03;4980664;28;20232;-81
2021/03/27 01:57:11;;;;;;;8.50;5.55;;;;;;;11.00;54.98;97839.53;4981186;28;20236;-82
2021/03/27 01:59:41;;;;;;;8.95;4.78;;;;;;;11.02;54.94;97839.47;4981915;28;20290;-80
2021/03/27 02:02:10;;;;;;;6.97;4.97;;;;;;;11.06;54.95;97835.78;4980391;28;20588;-81
2021/03/27 02:04:37;;;;;;;8.23;5.10;;;;;;;11.12;54.34;97838.97;4979057;28;20229;-80
2021/03/27 02:07:06;;;;;;;8.20;4.75;;;;;;;11.15;54.79;97833.59;4978990;28;20220;-81
2021/03/27 02:09:38;;;;;;;8.13;4.68;;;;;;;11.19;55.04;97836.91;4981366;28;20698;-81
2021/03/27 02:12:08;;;;;;;8.10;5.10;;;;;;;11.23;54.56;97837.63;4980248;28;21196;-80
2021/03/27 02:14:39;;;;;;;7.78;4.53;;;;;;;11.21;54.25;97837.69;4980205;28;20224;-81
2021/03/27 02:17:10;;;;;;;8.68;5.22;;;;;;;11.20;54.25;97833.41;4981481;28;20457;-80
2021/03/27 02:20:13;;;;;;;6.20;4.43;;;;;;;11.15;54.84;97830.97;4984787;28;20225;-81
2021/03/27 02:22:44;;;;;;;7.07;4.72;;;;;;;11.19;54.56;97829.09;4941879;28;20987;-81
2021/03/27 02:25:30;;;;;;;7.18;4.35;;;;;;;11.18;54.89;97830.84;4982202;28;20355;-80
2021/03/27 02:28:04;;;;;;;5.50;4.18;;;;;;;11.22;54.34;97835.94;4982211;28;20731;-80
2021/03/27 02:30:33;;;;;;;6.03;4.25;;;;;;;11.22;53.92;97821.13;4981236;28;20652;-80
2021/03/27 02:33:19;;;;;;;5.53;4.10;;;;;;;11.17;53.73;97820.47;4980141;28;20228;-82
2021/03/27 02:35:59;;;;;;;6.13;4.15;;;;;;;11.21;54.20;97821.19;4979535;28;20238;-80
2021/03/27 02:38:33;;;;;;;5.88;3.88;;;;;;;11.20;54.13;97809.91;4982868;28;20212;-81
2021/03/27 02:41:07;;;;;;;5.32;4.13;;;;;;;11.04;54.57;97801.09;4979713;28;20212;-80
2021/03/27 02:43:37;;;;;;;5.22;3.75;;;;;;;10.98;54.72;97815.25;4978679;28;20208;-80
2021/03/27 02:46:08;;;;;;;6.70;3.90;;;;;;;10.90;55.46;97836.50;4978091;28;20220;-80
2021/03/27 02:48:46;;;;;;;5.97;4.30;;;;;;;10.74;55.54;97838.09;4983571;28;21252;-79
2021/03/27 02:51:17;;;;;;;4.50;3.50;;;;;;;10.72;55.45;97832.09;4979842;28;20208;-80
2021/03/27 02:53:47;;;;;;;7.47;3.97;;;;;;;10.74;55.84;97835.47;4980356;28;20243;-82
2021/03/27 02:56:20;;;;;;;5.65;4.15;;;;;;;10.84;55.65;97836.75;4980621;28;20227;-82
2021/03/27 02:58:57;;;;;;;6.05;3.88;;;;;;;10.96;55.32;97831.00;4981979;28;20209;-81
2021/03/27 03:01:30;;;;;;;6.60;3.70;;;;;;;11.07;55.36;97829.66;4981764;28;20505;-81
2021/03/27 03:03:59;;;;;;;7.18;4.72;;;;;;;11.18;55.64;97824.78;4976202;28;20255;-80
2021/03/27 03:06:34;;;;;;;5.70;3.80;;;;;;;11.23;55.00;97828.03;4982825;28;20212;-80
2021/03/27 03:09:08;;;;;;;8.30;4.45;;;;;;;11.32;54.88;97818.91;4981872;28;20290;-81
2021/03/27 03:11:45;;;;;;;6.03;4.07;;;;;;;11.41;54.46;97821.09;4986470;28;20244;-80
2021/03/27 03:14:16;;;;;;;5.80;4.40;;;;;;;11.47;54.46;97820.81;4979625;28;20703;-80
2021/03/27 03:16:46;;;;;;;7.25;4.38;;;;;;;11.52;54.24;97817.97;4979770;28;20215;-80
2021/03/27 03:19:16;;;;;;;8.75;4.80;;;;;;;11.54;54.63;97821.34;4982308;28;20256;-80
2021/03/27 03:21:46;;;;;;;9.38;4.60;;;;;;;11.56;53.83;97835.19;4978729;28;20216;-80
2021/03/27 03:24:17;;;;;;;4.90;4.13;;;;;;;11.51;54.61;97824.13;4979937;28;20340;-82
2021/03/27 03:27:05;;;;;;;6.97;4.40;;;;;;;11.49;54.38;97828.59;4980273;28;20991;-79
2021/03/27 03:29:45;;;;;;;6.90;4.68;;;;;;;11.51;54.95;97831.97;4981645;28;20302;-81
2021/03/27 03:32:19;;;;;;;7.53;4.63;;;;;;;11.54;54.62;97827.44;4977561;28;20220;-80
2021/03/27 03:34:58;;;;;;;7.63;5.00;;;;;;;11.63;54.55;97822.69;4982278;28;20228;-81
2021/03/27 03:37:33;;;;;;;6.50;4.57;;;;;;;11.66;55.11;97828.63;4979722;28;20199;-80
2021/03/27 03:40:14;;;;;;;8.10;3.90;;;;;;;11.67;54.77;97827.72;4981200;28;20208;-81
2021/03/27 03:42:59;;;;;;;8.73;4.18;;;;;;;11.69;54.72;97828.47;4983298;28;20217;-81
2021/03/27 03:45:38;;;;;;;5.35;4.10;;;;;;;11.77;54.72;97835.94;4984939;28;20769;-81
2021/03/27 03:48:12;;;;;;;7.43;4.55;;;;;;;11.86;54.46;97835.50;4986765;28;20296;-80
2021/03/27 03:50:44;;;;;;;6.35;4.15;;;;;;;11.90;54.99;97828.38;4984340;28;21205;-80
2021/03/27 03:53:23;;;;;;;6.00;4.47;;;;;;;11.92;54.70;97837.00;4987437;28;20239;-81
2021/03/27 03:56:05;;;;;;;6.22;4.03;;;;;;;11.97;54.42;97837.63;4984853;28;20733;-80
2021/03/27 03:58:57;;;;;;;5.68;4.50;;;;;;;12.03;55.05;97839.09;4986477;28;20847;-81
2021/03/27 04:01:34;;;;;;;6.43;4.43;;;;;;;12.03;54.57;97845.16;4986343;28;20204;-81
2021/03/27 04:04:05;;;;;;;7.38;4.53;;;;;;;12.01;54.54;97840.94;4985477;28;20319;-81
2021/03/27 04:06:33;;;;;;;7.75;4.68;;;;;;;11.99;55.22;97843.63;4982782;28;20215;-81
2021/03/27 04:09:02;;;;;;;5.53;4.07;;;;;;;11.93;55.81;97849.16;4981097;28;20213;-81
2021/03/27 04:11:50;;;;;;;7.22;3.80;;;;;;;11.87;56.90;97849.41;4982298;28;20212;-80
2021/03/27 04:14:28;;;;;;;3.92;3.10;;;;;;;11.80;58.54;97854.09;4980003;28;20236;-80
2021/03/27 04:17:00;;;;;;;4.55;3.33;;;;;;;11.87;57.49;97859.84;4983611;28;20844;-81
2021/03/27 04:19:28;;;;;;;4.18;2.90;;;;;;;11.87;58.56;97857.22;4983442;28;20236;-81
2021/03/27 04:22:04;;;;;;;3.67;3.00;;;;;;;11.95;59.44;97868.22;4983595;28;20218;-82
2021/03/27 04:24:34;;;;;;;3.55;3.03;;;;;;;11.97;59.32;97866.38;4982304;28;20232;-82
2021/03/27 04:27:05;;;;;;;3.45;2.70;;;;;;;12.04;59.32;97872.13;4983122;28;20204;-82
2021/03/27 04:29:38;;;;;;;3.53;2.92;;;;;;;12.10;59.57;97883.13;4983655;28;20220;-82
2021/03/27 04:32:24;;;;;;;3.85;3.03;;;;;;;12.15;59.84;97896.00;4984107;28;20232;-82
2021/03/27 04:34:56;;;;;;;5.05;2.35;;;;;;;12.13;60.29;97892.59;4977500;28;20225;-81
2021/03/27 04:37:26;;;;;;;5.80;2.58;;;;;;;12.15;60.04;97889.00;4984942;28;20822;-83
2021/03/27 04:39:57;;;;;;;5.35;2.72;;;;;;;12.14;60.84;97905.59;4985518;28;20215;-83
2021/03/27 04:42:29;;;;;;;4.50;2.40;;;;;;;12.20;60.62;97880.06;4983614;28;20205;-80
2021/03/27 04:45:06;;;;;;;3.20;2.78;;;;;;;12.26;60.26;97871.91;4982013;28;20264;-83
2021/03/27 04:47:35;;;;;;;3.55;2.50;;;;;;;12.27;60.73;97877.06;4984076;28;20299;-80
2021/03/27 04:50:13;;;;;;;3.00;2.30;;;;;;;12.24;60.95;97869.41;4984713;28;20212;-81
2021/03/27 04:52:48;;;;;;;4.00;2.30;;;;;;;12.26;60.60;97869.28;4980155;28;20765;-83
2021/03/27 04:55:23;;;;;;;5.07;3.03;;;;;;;12.32;61.22;97879.47;4982391;28;20224;-82
2021/03/27 04:58:01;;;;;;;2.67;1.92;;;;;;;12.21;61.72;97885.22;4984659;28;20298;-81
2021/03/27 05:00:41;;;;;;;2.72;2.28;;;;;;;12.26;61.18;97914.63;4983794;28;20206;-81
2021/03/27 05:03:15;;;;;;;3.08;2.63;;;;;;;12.14;62.46;97916.03;4980971;28;20763;-82
2021/03/27 05:05:55;;;;;;;2.70;2.08;;;;;;;12.16;62.66;97918.59;4986096;28;20318;-81
2021/03/27 05:08:35;;;;;;;3.47;2.67;;;;;;;12.14;62.72;97929.13;4982393;28;20204;-80
2021/03/27 05:11:11;;;;;;;3.50;2.47;;;;;;;12.14;63.15;97957.88;4978756;28;20208;-79
2021/03/27 05:13:41;;;;;;;2.95;2.25;;;;;;;12.11;63.83;97963.28;4981577;28;20240;-81
2021/03/27 05:16:11;;;;;;;2.30;2.00;;;;;;;12.02;64.43;97984.63;4981412;28;20270;-80
2021/03/27 05:18:48;;;;;;;2.65;2.40;;;;;;;12.03;64.13;97996.75;4977447;28;20208;-81
2021/03/27 05:21:29;;;;;;;3.20;1.98;;;;;;;12.04;64.47;98014.16;4982737;28;20294;-80
2021/03/27 05:24:04;;;;;;;2.60;2.13;;;;;;;11.98;66.56;98009.19;4979185;28;20248;-81
2021/03/27 05:26:38;;;;;;;3.85;2.53;;;;;;;11.72;68.10;98024.28;4983205;28;20208;-80
2021/03/27 05:29:11;;;;;;;2.90;2.47;;;;;;;11.58;70.22;98031.91;4987282;28;20213;-81
2021/03/27 05:31:48;;;;;;;2.72;2.53;;;;;;;11.52;70.06;98040.88;4981762;28;20354;-81
2021/03/27 05:34:22;;;;;;;3.17;2.58;;;;;;;11.36;72.25;98053.75;4980250;28;20347;-80
2021/03/27 05:37:06;;;;;;;3.83;2.88;;;;;;;11.34;73.54;98052.97;4981713;28;20254;-82
2021/03/27 05:39:36;;;;;;;4.35;3.00;;;;;;;11.31;72.29;98047.03;4978907;28;20299;-81
2021/03/27 05:42:27;;;;;;;4.05;2.60;;;;;;;10.97;77.17;98062.34;4980319;28;20208;-81
2021/03/27 05:45:38;;;;;;;3.35;2.88;;;;;;;10.93;76.71;98055.53;4980995;28;20283;-80
2021/03/27 05:48:26;;;;;;;4.35;3.28;;;;;;;10.95;77.05;98045.91;4976728;28;20204;-79
2021/03/27 05:51:34;;;;;;;3.95;2.45;;;;;;;10.91;76.29;98046.94;4978622;28;20221;-80
2021/03/27 05:54:11;;;;;;;3.95;2.50;;;;;;;10.94;75.08;98046.81;4982005;28;20238;-80
2021/03/27 05:57:12;;;;;;;4.38;2.80;;;;;;;11.00;74.58;98046.53;4982890;28;20207;-79
2021/03/27 05:59:53;;;;;;;3.75;2.88;;;;;;;11.04;74.77;98067.31;4983136;28;20871;-79
2021/03/27 06:02:33;;;;;;;2.83;2.15;;;;;;;11.02;74.85;98079.56;4970354;28;20888;-80
2021/03/27 06:05:18;;;;;;;2.97;2.40;;;;;;;10.98;74.95;98081.47;4982621;28;20239;-81
2021/03/27 06:08:02;;;;;;;3.47;2.40;;;;;;;10.96;74.28;98085.91;4981451;28;20670;-80
2021/03/27 06:10:52;;;;;;;2.53;2.10;;;;;;;10.93;75.02;98094.69;4982810;28;20255;-79
2021/03/27 06:13:46;;;;;;;2.97;2.35;;;;;;;10.91;75.72;98114.78;4975023;28;20601;-80
2021/03/27 06:16:35;;;;;;;3.85;2.70;;;;;;;10.87;78.06;98109.75;4981411;28;20637;-80
2021/03/27 06:19:39;;;;;;;3.20;1.98;;;;;;;10.86;74.67;98127.16;4981607;28;20213;-81
2021/03/27 06:22:16;;;;;;;3.13;1.80;;;;;;;10.87;73.76;98118.44;4982371;28;20215;-82
2021/03/27 06:24:53;;;;;;;3.05;1.52;;;;;;;10.86;74.17;98126.31;4978941;28;20238;-81
2021/03/27 06:27:47;;;;;;;2.15;1.50;;;;;;;10.90;73.85;98127.88;4987184;28;20586;-80
2021/03/27 06:30:27;;;;;;;4.85;2.03;;;;;;;10.81;72.23;98150.00;4986463;28;20228;-79
2021/03/27 06:33:14;;;;;;;1.70;1.40;;;;;;;10.81;73.53;98139.56;4984858;28;20709;-79
2021/03/27 06:35:58;;;;;;;2.10;1.27;;;;;;;10.85;70.54;98153.34;4984969;28;20247;-80
2021/03/27 06:39:01;;;;;;;1.58;1.42;;;;;;;10.86;70.79;98152.41;4987276;28;20255;-79
2021/03/27 06:41:49;;;;;;;2.15;1.40;;;;;;;10.83;69.93;98150.78;4983764;28;20284;-79
2021/03/27 06:44:41;;;;;;;1.00;0.90;;;;;;;10.75;68.88;98145.88;4969792;28;20291;-79
2021/03/27 06:47:26;;;;;;;1.77;1.10;;;;;;;10.74;67.99;98156.38;4982156;28;21096;-80
2021/03/27 06:50:35;;;;;;;2.88;1.30;;;;;;;10.73;68.59;98165.09;4965390;28;20224;-79
2021/03/27 06:53:19;;;;;;;2.65;1.38;;;;;;;10.78;69.04;98179.66;4975036;28;20239;-80
2021/03/27 06:56:04;;;;;;;2.92;1.40;;;;;;;10.73;67.85;98167.69;4986329;28;20243;-81
2021/03/27 06:59:01;;;;;;;1.63;1.17;;;;;;;10.71;68.23;98179.97;4986071;28;20231;-81
2021/03/27 07:01:49;;;;;;;3.17;1.50;;;;;;;10.59;68.68;98184.75;4982770;28;20239;-82
2021/03/27 07:04:59;;;;;;;1.92;1.20;;;;;;;10.54;67.29;98188.44;4985810;28;20231;-81
2021/03/27 07:07:43;;;;;;;2.03;1.05;;;;;;;10.46;66.03;98190.47;4984355;28;20216;-80
2021/03/27 07:10:32;;;;;;;1.52;1.27;;;;;;;10.46;65.20;98211.31;4981437;28;20234;-80
2021/03/27 07:13:22;;;;;;;1.83;1.25;;;;;;;10.35;64.19;98219.56;4982064;28;20236;-82
2021/03/27 07:15:54;;;;;;;1.90;1.27;;;;;;;10.34;64.18;98228.28;4985024;28;20244;-81
2021/03/27 07:18:44;;;;;;;1.15;1.05;;;;;;;10.27;63.69;98230.22;4989030;28;20219;-81
2021/03/27 07:21:35;;;;;;;1.75;1.05;;;;;;;10.17;63.60;98245.34;4985316;28;20712;-81
2021/03/27 07:24:10;;;;;;;1.58;0.90;;;;;;;10.12;64.00;98262.06;4986424;28;20240;-81
2021/03/27 07:27:06;;;;;;;1.58;0.73;;;;;;;9.97;64.59;98271.25;4989194;28;20215;-81
2021/03/27 07:30:07;;;;;;;1.15;1.02;;;;;;;9.78;64.46;98282.31;4960683;28;20216;-81
2021/03/27 07:32:45;;;;;;;1.25;0.65;;;;;;;9.74;64.38;98291.13;4981552;28;20216;-80
2021/03/27 07:35:39;;;;;;;0.50;0.40;;;;;;;9.61;62.55;98318.44;4988486;28;20248;-80
2021/03/27 07:38:18;;;;;;;0.28;0.20;;;;;;;9.44;62.76;98319.84;4983486;28;20224;-80
2021/03/27 07:40:54;;;;;;;0.52;0.47;;;;;;;9.31;63.12;98328.94;4985929;28;20223;-80
2021/03/27 07:43:38;;;;;;;0.68;0.40;;;;;;;9.20;62.78;98342.28;4986693;28;20244;-80
2021/03/27 07:46:23;;;;;;;2.00;0.40;;;;;;;9.18;63.44;98335.41;4984787;28;20266;-81
2021/03/27 07:49:03;;;;;;;0.77;0.40;;;;;;;9.21;64.09;98353.56;4987460;28;20207;-81
2021/03/27 07:51:46;;;;;;;4.05;1.83;;;;;;;9.12;63.43;98362.47;4983138;28;20939;-81
2021/03/27 07:54:41;;;;;;;0.35;0.13;;;;;;;8.96;62.48;98375.06;4981297;28;20915;-80
2021/03/27 07:57:38;;;;;;;1.63;0.57;;;;;;;8.97;62.59;98382.00;4968448;28;20295;-80
2021/03/27 08:00:37;;;;;;;0.43;0.20;;;;;;;8.87;62.63;98375.34;4988336;28;20223;-81
2021/03/27 08:03:28;;;;;;;0.60;0.20;;;;;;;8.99;63.25;98387.16;4985046;28;20258;-81
2021/03/27 08:06:03;;;;;;;0.43;0.30;;;;;;;9.07;63.77;98388.63;4981328;28;20290;-80
2021/03/27 08:08:45;;;;;;;0.38;0.30;;;;;;;9.05;62.80;98400.81;4992058;28;20286;-81
2021/03/27 08:11:24;;;;;;;0.43;0.30;;;;;;;9.10;63.39;98390.31;4986917;28;20217;-81
2021/03/27 08:14:19;;;;;;;1.38;0.50;;;;;;;9.18;62.66;98397.88;4989130;28;20239;-81
2021/03/27 08:16:53;;;;;;;0.47;0.40;;;;;;;9.31;63.14;98401.81;4991379;28;21038;-82
2021/03/27 08:19:40;;;;;;;1.38;0.55;;;;;;;9.41;62.25;98403.28;4987046;28;20210;-80
2021/03/27 08:22:20;;;;;;;0.50;0.50;;;;;;;9.55;61.41;98409.81;4989800;28;20220;-80
2021/03/27 08:24:50;;;;;;;0.70;0.43;;;;;;;9.56;60.21;98440.16;4984831;28;20239;-81
2021/03/27 08:27:52;;;;;;;1.58;0.50;;;;;;;9.53;58.16;98425.47;4986644;28;20246;-80
2021/03/27 08:30:55;;;;;;;0.80;0.38;;;;;;;9.52;55.77;98441.13;4980673;28;20215;-79
2021/03/27 08:34:08;;;;;;;0.90;0.50;;;;;;;9.67;55.17;98419.88;4987148;28;20227;-81
2021/03/27 08:37:05;;;;;;;0.93;0.50;;;;;;;9.80;55.49;98454.19;4988324;28;20216;-79
2021/03/27 08:39:47;;;;;;;0.70;0.52;;;;;;;9.68;53.52;98454.56;4986879;28;20216;-78
2021/03/27 08:43:04;;;;;;;0.38;0.20;;;;;;;9.50;52.40;98458.56;4990397;28;20216;-79
2021/03/27 08:45:55;;;;;;;0.40;0.40;;;;;;;9.50;53.03;98453.34;4908479;29;20234;-78
2021/03/27 08:48:29;;;;;;;0.60;0.40;;;;;;;9.48;53.17;98465.56;4911566;29;20211;-79
2021/03/27 08:51:11;;;;;;;0.88;0.40;;;;;;;9.48;53.48;98460.38;4969483;28;20227;-78
2021/03/27 08:54:18;;;;;;;1.33;0.60;;;;;;;9.52;53.17;98461.97;4986857;28;20710;-78
2021/03/27 08:57:15;;;;;;;0.70;0.50;;;;;;;9.51;51.32;98470.69;4987377;28;20220;-78
2021/03/27 09:00:35;;;;;;;0.47;0.40;;;;;;;9.52;50.49;98473.25;4985599;28;20697;-80
2021/03/27 09:03:45;;;;;;;0.82;0.35;;;;;;;9.60;51.03;98475.63;4985398;28;20906;-78
2021/03/27 09:06:17;;;;;;;1.42;1.17;;;;;;;9.63;51.06;98483.34;4986726;28;20696;-78
2021/03/27 09:08:46;;;;;;;0.70;0.40;;;;;;;9.64;50.88;98482.47;4985651;28;20697;-79
2021/03/27 09:11:34;;;;;;;0.57;0.30;;;;;;;9.69;51.05;98485.78;4981905;28;20865;-78
2021/03/27 09:14:12;;;;;;;0.40;0.20;;;;;;;9.67;50.63;98487.59;4989232;28;20672;-78
2021/03/27 09:16:58;;;;;;;0.38;0.10;;;;;;;9.50;48.88;98489.81;4988979;28;20220;-80
2021/03/27 09:19:53;;;;;;;0.70;0.28;;;;;;;9.37;48.75;98495.34;4983095;28;20275;-80
2021/03/27 09:22:53;;;;;;;0.40;0.20;;;;;;;9.31;47.62;98499.91;4985167;28;21085;-78
2021/03/27 09:25:34;;;;;;;1.33;0.20;;;;;;;9.40;48.57;98502.25;4982926;28;20236;-80
2021/03/27 09:28:18;;;;;;;0.30;0.20;;;;;;;9.42;48.15;98508.25;4984561;28;20744;-79
2021/03/27 09:30:57;;;;;;;0.50;0.30;;;;;;;9.54;47.83;98494.03;4981487;28;20266;-79
2021/03/27 09:33:28;;;;;;;1.40;0.52;;;;;;;9.60;47.94;98496.47;4987838;28;20229;-80
2021/03/27 09:36:13;;;;;;;1.17;0.22;;;;;;;9.69;47.76;98488.38;4984706;28;20243;-79
2021/03/27 09:38:50;;;;;;;1.02;0.60;;;;;;;9.63;47.28;98496.34;4985547;28;20256;-80
2021/03/27 09:41:39;;;;;;;1.83;0.35;;;;;;;9.66;47.73;98498.88;4979884;28;20857;-79
2021/03/27 09:44:20;;;;;;;0.60;0.35;;;;;;;9.80;48.32;98514.13;4933727;28;20224;-79
2021/03/27 09:47:01;;;;;;;1.63;0.30;;;;;;;9.68;48.58;98504.91;4978071;28;20209;-80
2021/03/27 09:49:31;;;;;;;1.45;0.30;;;;;;;9.81;48.73;98515.81;4979756;28;20212;-79
2021/03/27 09:52:16;;;;;;;1.10;0.45;;;;;;;9.90;48.95;98522.50;4980089;28;20310;-79
2021/03/27 09:54:47;;;;;;;0.70;0.40;;;;;;;10.15;50.30;98520.88;4980147;28;20240;-80
2021/03/27 09:57:19;;;;;;;1.63;0.47;;;;;;;10.36;49.02;98500.25;4980765;28;20215;-79
2021/03/27 09:59:47;;;;;;;1.88;0.82;;;;;;;10.33;46.90;98516.88;4982384;28;20205;-81
2021/03/27 10:02:21;;;;;;;0.55;0.30;;;;;;;10.50;46.48;98518.94;4982378;28;20212;-80
2021/03/27 10:04:53;;;;;;;0.95;0.45;;;;;;;10.47;45.86;98533.81;4975794;28;20244;-80
2021/03/27 10:07:35;;;;;;;1.02;0.47;;;;;;;10.47;45.55;98520.78;4982694;28;20215;-82
2021/03/27 10:10:14;;;;;;;0.75;0.43;;;;;;;10.50;45.92;98518.94;4982793;28;20216;-82
2021/03/27 10:12:45;;;;;;;1.15;0.35;;;;;;;10.49;45.85;98538.06;4981585;28;20235;-81
2021/03/27 10:15:19;;;;;;;1.00;0.43;;;;;;;10.66;45.69;98531.47;4979190;28;20732;-82
2021/03/27 10:17:53;;;;;;;0.98;0.60;;;;;;;10.73;44.85;98532.97;4980073;28;20220;-82
2021/03/27 10:20:27;;;;;;;0.40;0.22;;;;;;;10.72;44.10;98537.34;4980286;28;20218;-82
2021/03/27 10:23:00;;;;;;;1.48;0.35;;;;;;;10.45;43.78;98553.88;4980760;28;20211;-81
2021/03/27 10:25:33;;;;;;;0.60;0.20;;;;;;;10.33;44.42;98534.25;4979719;28;20240;-82
2021/03/27 10:28:15;;;;;;;3.40;0.50;;;;;;;10.26;43.94;98537.94;4980344;28;20645;-81
2021/03/27 10:30:53;;;;;;;1.00;0.32;;;;;;;10.27;44.23;98526.59;4980714;28;20209;-81
2021/03/27 10:33:21;;;;;;;2.65;0.70;;;;;;;10.32;44.61;98553.41;4984854;28;20235;-82
2021/03/27 10:35:59;;;;;;;2.55;0.50;;;;;;;10.53;45.18;98536.22;4982548;28;20326;-82
2021/03/27 10:38:40;;;;;;;2.58;0.60;;;;;;;10.61;43.76;98540.31;4979639;28;20208;-81
2021/03/27 10:41:10;;;;;;;3.10;0.80;;;;;;;10.72;44.13;98546.94;4983461;28;20221;-80
2021/03/27 10:43:45;;;;;;;0.70;0.40;;;;;;;10.79;44.13;98558.88;4982174;28;20205;-81
2021/03/27 10:46:21;;;;;;;1.77;0.35;;;;;;;10.83;43.11;98562.25;4980971;28;20273;-80
2021/03/27 10:49:02;;;;;;;0.98;0.47;;;;;;;10.89;42.98;98562.88;4977792;28;20271;-78
2021/03/27 10:51:50;;;;;;;1.55;0.40;;;;;;;10.98;43.66;98559.94;4985090;28;20231;-79
2021/03/27 10:54:46;;;;;;;0.70;0.45;;;;;;;11.12;43.64;98556.00;4980965;28;20239;-79
2021/03/27 10:57:22;;;;;;;0.93;0.50;;;;;;;11.26;42.85;98559.00;4984476;28;20223;-79
2021/03/27 11:00:00;;;;;;;1.73;0.50;;;;;;;11.53;43.52;98554.56;4987760;28;20270;-81
2021/03/27 11:02:42;;;;;;;1.30;0.47;;;;;;;11.55;42.19;98538.84;4985347;28;20208;-79
2021/03/27 11:05:35;;;;;;;3.38;0.60;;;;;;;11.59;42.56;98558.72;4984678;28;20772;-80
2021/03/27 11:08:16;;;;;;;1.70;0.63;;;;;;;11.59;42.53;98550.88;4987275;28;20614;-80
2021/03/27 11:11:06;;;;;;;0.98;0.50;;;;;;;11.69;42.13;98562.72;4982405;28;20223;-79
2021/03/27 11:13:43;;;;;;;2.13;0.90;;;;;;;11.76;42.65;98564.19;4991841;28;20247;-81
2021/03/27 11:16:19;;;;;;;2.00;0.63;;;;;;;11.77;43.01;98565.88;4987726;28;20222;-80
2021/03/27 11:19:07;;;;;;;2.28;0.70;;;;;;;11.75;42.12;98562.47;4988236;28;20216;-80
2021/03/27 11:21:53;;;;;;;1.25;0.40;;;;;;;11.89;43.21;98566.34;4983340;28;20216;-81
2021/03/27 11:24:29;;;;;;;1.75;0.60;;;;;;;11.91;41.51;98572.38;4988713;28;20245;-81
2021/03/27 11:27:12;;;;;;;2.28;0.70;;;;;;;11.90;42.29;98565.47;4986866;28;20211;-81
2021/03/27 11:29:43;;;;;;;2.78;0.65;;;;;;;11.93;42.92;98565.38;4987158;28;20649;-81
2021/03/27 11:32:20;;;;;;;1.50;0.50;;;;;;;11.95;42.33;98563.53;4986336;28;20222;-81
2021/03/27 11:34:55;;;;;;;5.03;1.05;;;;;;;11.93;42.62;98562.75;4987153;28;20259;-80
2021/03/27 11:37:41;;;;;;;2.05;0.70;;;;;;;11.97;42.62;98569.56;4982512;28;20722;-80
2021/03/27 11:40:20;;;;;;;3.60;0.77;;;;;;;11.97;42.27;98571.34;4992212;28;20218;-81
2021/03/27 11:42:57;;;;;;;1.83;0.57;;;;;;;11.83;41.71;98564.81;4989449;28;20223;-81
2021/03/27 11:45:27;;;;;;;2.70;0.85;;;;;;;11.81;41.45;98577.09;4984416;28;20262;-81
2021/03/27 11:48:01;;;;;;;3.85;0.65;;;;;;;11.89;41.27;98566.34;4989783;28;20216;-81
2021/03/27 11:50:37;;;;;;;2.72;0.63;;;;;;;12.12;41.62;98571.59;4986717;28;20216;-81
2021/03/27 11:53:11;;;;;;;1.10;0.52;;;;;;;12.23;40.70;98580.81;4988001;28;20241;-80
2021/03/27 11:55:41;;;;;;;2.08;0.60;;;;;;;12.25;40.93;98574.59;4982408;28;20243;-81
2021/03/27 11:58:18;;;;;;;4.32;0.80;;;;;;;12.31;40.09;98586.56;4985132;28;20326;-80
2021/03/27 12:00:48;;;;;;;3.42;0.82;;;;;;;12.62;39.96;98580.16;4985611;28;20215;-80
2021/03/27 12:03:22;;;;;;;2.20;0.50;;;;;;;12.67;39.50;98572.97;4985921;28;20650;-81
2021/03/27 12:05:51;;;;;;;2.50;0.60;;;;;;;12.58;39.87;98578.56;4989820;28;20257;-81
2021/03/27 12:08:30;;;;;;;3.13;0.75;;;;;;;12.52;40.25;98572.66;4986192;28;20347;-81
2021/03/27 12:11:01;;;;;;;1.10;0.70;;;;;;;12.91;40.24;98571.94;4987690;28;20209;-80
2021/03/27 12:13:35;;;;;;;1.42;0.70;;;;;;;13.72;39.17;98574.66;4985522;28;21116;-81
2021/03/27 12:16:14;;;;;;;0.90;0.57;;;;;;;14.25;37.98;98584.47;4983772;28;20240;-82
2021/03/27 12:19:03;;;;;;;2.65;0.60;;;;;;;15.02;36.43;98577.34;4980243;28;20216;-82
2021/03/27 12:21:31;;;;;;;2.85;0.50;;;;;;;15.49;33.94;98583.72;4974391;28;20275;-81
2021/03/27 12:24:02;;;;;;;1.13;0.52;;;;;;;16.21;33.26;98592.22;4983731;28;20355;-81
2021/03/27 12:26:33;;;;;;;1.35;0.60;;;;;;;17.26;32.38;98577.50;4981321;28;20216;-82
2021/03/27 12:29:04;;;;;;;3.50;0.60;;;;;;;16.34;32.18;98593.28;4982467;28;20625;-81